sensor_id;sensor_type;location;lat;lon;timestamp;pressure;altitude;pressure_sealevel;temperature;humidity
50632;BME280;49583;45.590;-122.498;2023-08-17T00:00:27;100661.38;;;40.75;22.19
50632;BME280;49583;45.590;-122.498;2023-08-17T00:03:03;100663.71;;;40.75;22.32
50632;BME280;49583;45.590;-122.498;2023-08-17T00:05:17;100659.09;;;40.75;22.30
50632;BME280;49583;45.590;-122.498;2023-08-17T00:07:30;100661.30;;;40.76;22.68
50632;BME280;49583;45.590;-122.498;2023-08-17T00:09:43;100656.06;;;40.77;22.61
50632;BME280;49583;45.590;-122.498;2023-08-17T00:11:56;100651.77;;;40.77;22.78
50632;BME280;49583;45.590;-122.498;2023-08-17T00:14:28;100644.54;;;40.76;22.89
50632;BME280;49583;45.590;-122.498;2023-08-17T00:16:44;100637.27;;;40.75;22.94
50632;BME280;49583;45.590;-122.498;2023-08-17T00:18:57;100631.70;;;40.74;23.01
50632;BME280;49583;45.590;-122.498;2023-08-17T00:21:09;100624.55;;;40.72;23.18
50632;BME280;49583;45.590;-122.498;2023-08-17T00:23:22;100628.24;;;40.72;22.99
50632;BME280;49583;45.590;-122.498;2023-08-17T00:25:44;100627.66;;;40.71;22.87
50632;BME280;49583;45.590;-122.498;2023-08-17T00:27:58;100622.80;;;40.71;22.64
50632;BME280;49583;45.590;-122.498;2023-08-17T00:30:15;100628.09;;;40.72;22.89
50632;BME280;49583;45.590;-122.498;2023-08-17T00:32:28;100623.95;;;40.70;22.97
50632;BME280;49583;45.590;-122.498;2023-08-17T00:34:44;100623.18;;;40.70;23.27
50632;BME280;49583;45.590;-122.498;2023-08-17T00:36:58;100621.65;;;40.71;23.21
50632;BME280;49583;45.590;-122.498;2023-08-17T00:39:14;100615.52;;;40.71;23.28
50632;BME280;49583;45.590;-122.498;2023-08-17T00:41:28;100610.90;;;40.71;23.25
50632;BME280;49583;45.590;-122.498;2023-08-17T00:43:41;100609.08;;;40.68;23.32
50632;BME280;49583;45.590;-122.498;2023-08-17T00:45:58;100605.99;;;40.63;23.48
50632;BME280;49583;45.590;-122.498;2023-08-17T00:48:13;100610.09;;;40.57;23.68
50632;BME280;49583;45.590;-122.498;2023-08-17T00:50:25;100611.48;;;40.54;23.51
50632;BME280;49583;45.590;-122.498;2023-08-17T00:52:44;100611.29;;;40.51;23.58
50632;BME280;49583;45.590;-122.498;2023-08-17T00:55:00;100609.88;;;40.50;23.49
50632;BME280;49583;45.590;-122.498;2023-08-17T00:57:13;100603.76;;;40.48;23.50
50632;BME280;49583;45.590;-122.498;2023-08-17T00:59:26;100600.02;;;40.45;23.54
50632;BME280;49583;45.590;-122.498;2023-08-17T01:01:45;100598.23;;;40.41;23.50
50632;BME280;49583;45.590;-122.498;2023-08-17T01:03:58;100597.88;;;40.37;23.35
50632;BME280;49583;45.590;-122.498;2023-08-17T01:06:11;100590.02;;;40.34;23.46
50632;BME280;49583;45.590;-122.498;2023-08-17T01:08:26;100588.05;;;40.32;23.47
50632;BME280;49583;45.590;-122.498;2023-08-17T01:10:44;100586.49;;;40.28;23.63
50632;BME280;49583;45.590;-122.498;2023-08-17T01:13:05;100582.21;;;40.26;23.59
50632;BME280;49583;45.590;-122.498;2023-08-17T01:15:24;100579.73;;;40.23;23.40
50632;BME280;49583;45.590;-122.498;2023-08-17T01:17:46;100580.79;;;40.21;23.48
50632;BME280;49583;45.590;-122.498;2023-08-17T01:20:00;100578.06;;;40.20;23.39
50632;BME280;49583;45.590;-122.498;2023-08-17T01:22:18;100575.85;;;40.16;23.62
50632;BME280;49583;45.590;-122.498;2023-08-17T01:24:36;100570.02;;;40.12;23.48
50632;BME280;49583;45.590;-122.498;2023-08-17T01:26:49;100567.61;;;40.09;23.34
50632;BME280;49583;45.590;-122.498;2023-08-17T01:29:03;100563.77;;;40.07;23.34
50632;BME280;49583;45.590;-122.498;2023-08-17T01:31:21;100562.03;;;40.04;23.41
50632;BME280;49583;45.590;-122.498;2023-08-17T01:33:44;100562.89;;;40.00;23.27
50632;BME280;49583;45.590;-122.498;2023-08-17T01:36:11;100559.16;;;39.99;23.27
50632;BME280;49583;45.590;-122.498;2023-08-17T01:38:26;100560.80;;;39.97;23.23
50632;BME280;49583;45.590;-122.498;2023-08-17T01:40:42;100557.70;;;39.93;23.20
50632;BME280;49583;45.590;-122.498;2023-08-17T01:42:56;100555.42;;;39.90;23.18
50632;BME280;49583;45.590;-122.498;2023-08-17T01:45:11;100550.19;;;39.88;23.11
50632;BME280;49583;45.590;-122.498;2023-08-17T01:47:33;100546.27;;;39.84;23.06
50632;BME280;49583;45.590;-122.498;2023-08-17T01:49:49;100545.86;;;39.82;23.05
50632;BME280;49583;45.590;-122.498;2023-08-17T01:52:12;100544.50;;;39.77;23.20
50632;BME280;49583;45.590;-122.498;2023-08-17T01:54:25;100541.41;;;39.71;23.28
50632;BME280;49583;45.590;-122.498;2023-08-17T01:56:48;100544.67;;;39.66;23.54
50632;BME280;49583;45.590;-122.498;2023-08-17T01:59:01;100549.58;;;39.59;23.30
50632;BME280;49583;45.590;-122.498;2023-08-17T02:01:13;100550.89;;;39.53;23.21
50632;BME280;49583;45.590;-122.498;2023-08-17T02:03:26;100550.06;;;39.48;23.21
50632;BME280;49583;45.590;-122.498;2023-08-17T02:05:39;100548.27;;;39.43;23.02
50632;BME280;49583;45.590;-122.498;2023-08-17T02:08:01;100550.39;;;39.38;22.81
50632;BME280;49583;45.590;-122.498;2023-08-17T02:10:17;100541.94;;;39.34;22.74
50632;BME280;49583;45.590;-122.498;2023-08-17T02:12:33;100543.78;;;39.30;22.79
50632;BME280;49583;45.590;-122.498;2023-08-17T02:14:46;100539.47;;;39.27;22.70
50632;BME280;49583;45.590;-122.498;2023-08-17T02:17:08;100538.09;;;39.21;22.54
50632;BME280;49583;45.590;-122.498;2023-08-17T02:19:40;100543.71;;;39.17;22.46
50632;BME280;49583;45.590;-122.498;2023-08-17T02:21:54;100543.60;;;39.12;22.49
50632;BME280;49583;45.590;-122.498;2023-08-17T02:24:10;100545.91;;;39.08;22.50
50632;BME280;49583;45.590;-122.498;2023-08-17T02:26:23;100549.92;;;39.04;22.58
50632;BME280;49583;45.590;-122.498;2023-08-17T02:28:36;100546.34;;;39.00;22.64
50632;BME280;49583;45.590;-122.498;2023-08-17T02:30:49;100545.84;;;38.95;22.61
50632;BME280;49583;45.590;-122.498;2023-08-17T02:33:09;100545.71;;;38.91;22.57
50632;BME280;49583;45.590;-122.498;2023-08-17T02:35:23;100547.33;;;38.85;22.68
50632;BME280;49583;45.590;-122.498;2023-08-17T02:37:35;100544.55;;;38.79;22.53
50632;BME280;49583;45.590;-122.498;2023-08-17T02:40:10;100543.84;;;38.72;22.57
50632;BME280;49583;45.590;-122.498;2023-08-17T02:42:22;100548.63;;;38.65;22.52
50632;BME280;49583;45.590;-122.498;2023-08-17T02:44:36;100554.77;;;38.59;22.50
50632;BME280;49583;45.590;-122.498;2023-08-17T02:46:50;100552.70;;;38.55;22.48
50632;BME280;49583;45.590;-122.498;2023-08-17T02:49:03;100558.96;;;38.48;22.62
50632;BME280;49583;45.590;-122.498;2023-08-17T02:51:18;100558.39;;;38.42;22.67
50632;BME280;49583;45.590;-122.498;2023-08-17T02:53:31;100560.45;;;38.35;22.88
50632;BME280;49583;45.590;-122.498;2023-08-17T02:55:43;100559.79;;;38.29;22.89
50632;BME280;49583;45.590;-122.498;2023-08-17T02:57:57;100557.36;;;38.22;22.90
50632;BME280;49583;45.590;-122.498;2023-08-17T03:00:12;100557.41;;;38.16;23.08
50632;BME280;49583;45.590;-122.498;2023-08-17T03:02:27;100555.45;;;38.08;22.90
50632;BME280;49583;45.590;-122.498;2023-08-17T03:04:50;100550.23;;;38.01;22.96
50632;BME280;49583;45.590;-122.498;2023-08-17T03:07:03;100558.78;;;37.92;23.14
50632;BME280;49583;45.590;-122.498;2023-08-17T03:09:17;100555.41;;;37.85;23.39
50632;BME280;49583;45.590;-122.498;2023-08-17T03:11:29;100558.56;;;37.77;23.65
50632;BME280;49583;45.590;-122.498;2023-08-17T03:13:42;100560.70;;;37.69;23.28
50632;BME280;49583;45.590;-122.498;2023-08-17T03:15:57;100562.34;;;37.60;23.69
50632;BME280;49583;45.590;-122.498;2023-08-17T03:18:19;100562.17;;;37.50;23.51
50632;BME280;49583;45.590;-122.498;2023-08-17T03:20:52;100563.14;;;37.40;23.39
50632;BME280;49583;45.590;-122.498;2023-08-17T03:23:06;100560.47;;;37.31;23.35
50632;BME280;49583;45.590;-122.498;2023-08-17T03:25:20;100562.23;;;37.23;23.57
50632;BME280;49583;45.590;-122.498;2023-08-17T03:27:34;100571.12;;;37.14;23.53
50632;BME280;49583;45.590;-122.498;2023-08-17T03:29:50;100573.86;;;37.05;23.63
50632;BME280;49583;45.590;-122.498;2023-08-17T03:32:04;100574.18;;;36.96;23.70
50632;BME280;49583;45.590;-122.498;2023-08-17T03:34:17;100573.71;;;36.87;23.66
50632;BME280;49583;45.590;-122.498;2023-08-17T03:36:30;100574.64;;;36.78;23.84
50632;BME280;49583;45.590;-122.498;2023-08-17T03:38:42;100579.71;;;36.70;23.82
50632;BME280;49583;45.590;-122.498;2023-08-17T03:40:55;100575.83;;;36.62;24.11
50632;BME280;49583;45.590;-122.498;2023-08-17T03:43:08;100578.85;;;36.55;24.17
50632;BME280;49583;45.590;-122.498;2023-08-17T03:45:22;100578.99;;;36.48;24.31
50632;BME280;49583;45.590;-122.498;2023-08-17T03:47:35;100579.89;;;36.41;24.29
50632;BME280;49583;45.590;-122.498;2023-08-17T03:49:48;100577.58;;;36.34;24.72
50632;BME280;49583;45.590;-122.498;2023-08-17T03:52:01;100579.98;;;36.26;24.81
50632;BME280;49583;45.590;-122.498;2023-08-17T03:54:17;100580.05;;;36.16;25.05
50632;BME280;49583;45.590;-122.498;2023-08-17T03:56:31;100578.02;;;36.06;25.10
50632;BME280;49583;45.590;-122.498;2023-08-17T03:58:43;100581.67;;;35.96;25.30
50632;BME280;49583;45.590;-122.498;2023-08-17T04:00:56;100580.95;;;35.84;25.19
50632;BME280;49583;45.590;-122.498;2023-08-17T04:03:12;100585.69;;;35.75;25.52
50632;BME280;49583;45.590;-122.498;2023-08-17T04:05:25;100588.27;;;35.64;25.46
50632;BME280;49583;45.590;-122.498;2023-08-17T04:07:38;100589.52;;;35.55;25.38
50632;BME280;49583;45.590;-122.498;2023-08-17T04:09:51;100595.30;;;35.47;25.40
50632;BME280;49583;45.590;-122.498;2023-08-17T04:12:14;100599.06;;;35.39;25.33
50632;BME280;49583;45.590;-122.498;2023-08-17T04:14:30;100594.90;;;35.32;25.46
50632;BME280;49583;45.590;-122.498;2023-08-17T04:16:44;100596.13;;;35.24;25.41
50632;BME280;49583;45.590;-122.498;2023-08-17T04:18:56;100599.27;;;35.17;25.59
50632;BME280;49583;45.590;-122.498;2023-08-17T04:21:12;100600.90;;;35.09;25.64
50632;BME280;49583;45.590;-122.498;2023-08-17T04:23:25;100606.91;;;35.04;25.81
50632;BME280;49583;45.590;-122.498;2023-08-17T04:25:37;100610.30;;;34.96;25.96
50632;BME280;49583;45.590;-122.498;2023-08-17T04:27:50;100610.88;;;34.88;26.04
50632;BME280;49583;45.590;-122.498;2023-08-17T04:30:04;100611.75;;;34.77;26.08
50632;BME280;49583;45.590;-122.498;2023-08-17T04:32:25;100612.94;;;34.66;25.97
50632;BME280;49583;45.590;-122.498;2023-08-17T04:34:38;100615.79;;;34.57;26.02
50632;BME280;49583;45.590;-122.498;2023-08-17T04:36:51;100620.66;;;34.50;26.03
50632;BME280;49583;45.590;-122.498;2023-08-17T04:39:04;100625.73;;;34.41;26.02
50632;BME280;49583;45.590;-122.498;2023-08-17T04:41:18;100630.58;;;34.33;26.15
50632;BME280;49583;45.590;-122.498;2023-08-17T04:43:34;100634.45;;;34.26;26.13
50632;BME280;49583;45.590;-122.498;2023-08-17T04:45:50;100636.37;;;34.19;26.23
50632;BME280;49583;45.590;-122.498;2023-08-17T04:48:04;100639.61;;;34.11;26.35
50632;BME280;49583;45.590;-122.498;2023-08-17T04:50:18;100644.98;;;34.01;26.34
50632;BME280;49583;45.590;-122.498;2023-08-17T04:52:31;100646.89;;;33.91;26.32
50632;BME280;49583;45.590;-122.498;2023-08-17T04:54:47;100648.16;;;33.82;26.40
50632;BME280;49583;45.590;-122.498;2023-08-17T04:57:03;100649.89;;;33.73;26.55
50632;BME280;49583;45.590;-122.498;2023-08-17T04:59:17;100648.55;;;33.66;26.62
50632;BME280;49583;45.590;-122.498;2023-08-17T05:01:29;100647.17;;;33.60;26.74
50632;BME280;49583;45.590;-122.498;2023-08-17T05:03:43;100643.46;;;33.53;26.55
50632;BME280;49583;45.590;-122.498;2023-08-17T05:05:56;100640.34;;;33.46;26.61
50632;BME280;49583;45.590;-122.498;2023-08-17T05:08:09;100642.72;;;33.41;26.76
50632;BME280;49583;45.590;-122.498;2023-08-17T05:10:22;100639.52;;;33.33;26.89
50632;BME280;49583;45.590;-122.498;2023-08-17T05:12:36;100634.95;;;33.25;27.04
50632;BME280;49583;45.590;-122.498;2023-08-17T05:14:49;100635.15;;;33.18;26.98
50632;BME280;49583;45.590;-122.498;2023-08-17T05:17:07;100636.13;;;33.10;27.03
50632;BME280;49583;45.590;-122.498;2023-08-17T05:19:20;100636.03;;;33.01;26.95
50632;BME280;49583;45.590;-122.498;2023-08-17T05:21:34;100636.23;;;32.94;27.29
50632;BME280;49583;45.590;-122.498;2023-08-17T05:23:50;100636.65;;;32.87;27.33
50632;BME280;49583;45.590;-122.498;2023-08-17T05:26:03;100627.02;;;32.80;27.22
50632;BME280;49583;45.590;-122.498;2023-08-17T05:28:20;100622.11;;;32.72;27.61
50632;BME280;49583;45.590;-122.498;2023-08-17T05:30:37;100615.52;;;32.63;27.69
50632;BME280;49583;45.590;-122.498;2023-08-17T05:32:50;100610.30;;;32.53;27.53
50632;BME280;49583;45.590;-122.498;2023-08-17T05:35:04;100611.31;;;32.43;27.62
50632;BME280;49583;45.590;-122.498;2023-08-17T05:37:20;100611.97;;;32.33;27.79
50632;BME280;49583;45.590;-122.498;2023-08-17T05:39:35;100609.84;;;32.26;27.93
50632;BME280;49583;45.590;-122.498;2023-08-17T05:41:50;100607.97;;;32.19;27.80
50632;BME280;49583;45.590;-122.498;2023-08-17T05:44:04;100604.68;;;32.12;28.02
50632;BME280;49583;45.590;-122.498;2023-08-17T05:46:19;100608.41;;;32.06;28.21
50632;BME280;49583;45.590;-122.498;2023-08-17T05:48:41;100617.05;;;32.01;28.21
50632;BME280;49583;45.590;-122.498;2023-08-17T05:50:54;100625.77;;;31.94;28.48
50632;BME280;49583;45.590;-122.498;2023-08-17T05:53:10;100632.14;;;31.87;28.73
50632;BME280;49583;45.590;-122.498;2023-08-17T05:55:23;100639.00;;;31.80;28.58
50632;BME280;49583;45.590;-122.498;2023-08-17T05:57:37;100639.80;;;31.73;28.77
50632;BME280;49583;45.590;-122.498;2023-08-17T05:59:49;100636.26;;;31.67;28.89
50632;BME280;49583;45.590;-122.498;2023-08-17T06:02:02;100636.92;;;31.60;29.05
50632;BME280;49583;45.590;-122.498;2023-08-17T06:04:19;100639.46;;;31.55;29.18
50632;BME280;49583;45.590;-122.498;2023-08-17T06:06:32;100642.36;;;31.49;29.47
50632;BME280;49583;45.590;-122.498;2023-08-17T06:08:45;100644.53;;;31.43;29.59
50632;BME280;49583;45.590;-122.498;2023-08-17T06:10:58;100649.02;;;31.38;29.71
50632;BME280;49583;45.590;-122.498;2023-08-17T06:13:14;100652.48;;;31.31;29.89
50632;BME280;49583;45.590;-122.498;2023-08-17T06:15:39;100655.00;;;31.25;30.19
50632;BME280;49583;45.590;-122.498;2023-08-17T06:17:55;100651.27;;;31.19;30.25
50632;BME280;49583;45.590;-122.498;2023-08-17T06:20:17;100647.52;;;31.14;30.41
50632;BME280;49583;45.590;-122.498;2023-08-17T06:22:30;100649.84;;;31.09;30.76
50632;BME280;49583;45.590;-122.498;2023-08-17T06:24:46;100647.55;;;31.03;30.88
50632;BME280;49583;45.590;-122.498;2023-08-17T06:26:59;100647.20;;;30.97;31.03
50632;BME280;49583;45.590;-122.498;2023-08-17T06:29:12;100646.79;;;30.92;31.09
50632;BME280;49583;45.590;-122.498;2023-08-17T06:31:25;100642.27;;;30.85;31.03
50632;BME280;49583;45.590;-122.498;2023-08-17T06:33:38;100639.14;;;30.80;31.14
50632;BME280;49583;45.590;-122.498;2023-08-17T06:35:51;100633.27;;;30.73;31.46
50632;BME280;49583;45.590;-122.498;2023-08-17T06:38:05;100630.52;;;30.66;31.47
50632;BME280;49583;45.590;-122.498;2023-08-17T06:40:22;100636.09;;;30.58;31.75
50632;BME280;49583;45.590;-122.498;2023-08-17T06:42:35;100638.59;;;30.50;31.82
50632;BME280;49583;45.590;-122.498;2023-08-17T06:44:48;100645.06;;;30.43;31.89
50632;BME280;49583;45.590;-122.498;2023-08-17T06:47:11;100645.35;;;30.37;32.06
50632;BME280;49583;45.590;-122.498;2023-08-17T06:49:23;100645.17;;;30.30;32.13
50632;BME280;49583;45.590;-122.498;2023-08-17T06:51:37;100650.05;;;30.25;32.32
50632;BME280;49583;45.590;-122.498;2023-08-17T06:53:50;100653.85;;;30.19;32.50
50632;BME280;49583;45.590;-122.498;2023-08-17T06:56:05;100658.27;;;30.16;32.57
50632;BME280;49583;45.590;-122.498;2023-08-17T06:58:20;100662.80;;;30.09;32.70
50632;BME280;49583;45.590;-122.498;2023-08-17T07:00:36;100659.77;;;30.00;33.01
50632;BME280;49583;45.590;-122.498;2023-08-17T07:02:54;100660.88;;;29.92;33.39
50632;BME280;49583;45.590;-122.498;2023-08-17T07:05:12;100657.02;;;29.85;33.71
50632;BME280;49583;45.590;-122.498;2023-08-17T07:07:25;100650.72;;;29.78;33.98
50632;BME280;49583;45.590;-122.498;2023-08-17T07:09:38;100649.15;;;29.72;34.10
50632;BME280;49583;45.590;-122.498;2023-08-17T07:11:53;100648.82;;;29.67;34.29
50632;BME280;49583;45.590;-122.498;2023-08-17T07:14:08;100645.23;;;29.60;34.37
50632;BME280;49583;45.590;-122.498;2023-08-17T07:16:25;100646.83;;;29.57;34.52
50632;BME280;49583;45.590;-122.498;2023-08-17T07:18:47;100644.73;;;29.51;34.63
50632;BME280;49583;45.590;-122.498;2023-08-17T07:21:03;100649.08;;;29.48;34.69
50632;BME280;49583;45.590;-122.498;2023-08-17T07:23:16;100647.33;;;29.45;34.72
50632;BME280;49583;45.590;-122.498;2023-08-17T07:25:29;100651.13;;;29.42;34.86
50632;BME280;49583;45.590;-122.498;2023-08-17T07:27:41;100651.90;;;29.38;34.77
50632;BME280;49583;45.590;-122.498;2023-08-17T07:29:54;100649.37;;;29.35;34.80
50632;BME280;49583;45.590;-122.498;2023-08-17T07:32:10;100648.61;;;29.30;34.93
50632;BME280;49583;45.590;-122.498;2023-08-17T07:34:23;100642.34;;;29.25;35.05
50632;BME280;49583;45.590;-122.498;2023-08-17T07:36:46;100643.98;;;29.20;35.19
50632;BME280;49583;45.590;-122.498;2023-08-17T07:38:59;100641.98;;;29.13;35.23
50632;BME280;49583;45.590;-122.498;2023-08-17T07:41:12;100642.34;;;29.06;35.25
50632;BME280;49583;45.590;-122.498;2023-08-17T07:43:30;100643.88;;;29.00;35.45
50632;BME280;49583;45.590;-122.498;2023-08-17T07:45:43;100642.70;;;28.94;35.41
50632;BME280;49583;45.590;-122.498;2023-08-17T07:47:56;100641.52;;;28.87;35.59
50632;BME280;49583;45.590;-122.498;2023-08-17T07:50:09;100639.25;;;28.81;35.57
50632;BME280;49583;45.590;-122.498;2023-08-17T07:52:24;100638.26;;;28.75;35.84
50632;BME280;49583;45.590;-122.498;2023-08-17T07:54:37;100636.87;;;28.69;35.87
50632;BME280;49583;45.590;-122.498;2023-08-17T07:56:49;100636.73;;;28.64;36.07
50632;BME280;49583;45.590;-122.498;2023-08-17T07:59:02;100634.84;;;28.59;36.10
50632;BME280;49583;45.590;-122.498;2023-08-17T08:01:15;100636.59;;;28.53;36.20
50632;BME280;49583;45.590;-122.498;2023-08-17T08:03:31;100635.30;;;28.48;36.29
50632;BME280;49583;45.590;-122.498;2023-08-17T08:05:44;100632.04;;;28.44;36.59
50632;BME280;49583;45.590;-122.498;2023-08-17T08:07:57;100633.63;;;28.40;36.51
50632;BME280;49583;45.590;-122.498;2023-08-17T08:10:11;100630.49;;;28.35;36.58
50632;BME280;49583;45.590;-122.498;2023-08-17T08:12:29;100632.36;;;28.30;36.62
50632;BME280;49583;45.590;-122.498;2023-08-17T08:14:46;100630.00;;;28.25;36.88
50632;BME280;49583;45.590;-122.498;2023-08-17T08:17:07;100622.39;;;28.21;37.02
50632;BME280;49583;45.590;-122.498;2023-08-17T08:19:30;100614.70;;;28.17;37.00
50632;BME280;49583;45.590;-122.498;2023-08-17T08:21:43;100607.48;;;28.12;37.21
50632;BME280;49583;45.590;-122.498;2023-08-17T08:23:56;100606.47;;;28.06;37.19
50632;BME280;49583;45.590;-122.498;2023-08-17T08:26:11;100600.31;;;28.00;37.57
50632;BME280;49583;45.590;-122.498;2023-08-17T08:28:24;100600.10;;;27.95;37.99
50632;BME280;49583;45.590;-122.498;2023-08-17T08:30:39;100597.21;;;27.91;38.25
50632;BME280;49583;45.590;-122.498;2023-08-17T08:33:04;100598.63;;;27.87;38.48
50632;BME280;49583;45.590;-122.498;2023-08-17T08:35:20;100592.42;;;27.84;38.69
50632;BME280;49583;45.590;-122.498;2023-08-17T08:37:38;100593.09;;;27.82;38.49
50632;BME280;49583;45.590;-122.498;2023-08-17T08:39:55;100593.04;;;27.80;38.54
50632;BME280;49583;45.590;-122.498;2023-08-17T08:42:07;100588.77;;;27.79;38.49
50632;BME280;49583;45.590;-122.498;2023-08-17T08:44:20;100579.38;;;27.77;38.54
50632;BME280;49583;45.590;-122.498;2023-08-17T08:46:38;100580.09;;;27.75;38.87
50632;BME280;49583;45.590;-122.498;2023-08-17T08:48:53;100585.08;;;27.71;38.97
50632;BME280;49583;45.590;-122.498;2023-08-17T08:51:14;100586.41;;;27.67;39.25
50632;BME280;49583;45.590;-122.498;2023-08-17T08:53:36;100583.20;;;27.62;39.28
50632;BME280;49583;45.590;-122.498;2023-08-17T08:55:57;100578.24;;;27.58;39.25
50632;BME280;49583;45.590;-122.498;2023-08-17T08:58:14;100569.00;;;27.53;39.24
50632;BME280;49583;45.590;-122.498;2023-08-17T09:00:28;100570.17;;;27.50;39.46
50632;BME280;49583;45.590;-122.498;2023-08-17T09:02:46;100568.49;;;27.47;39.63
50632;BME280;49583;45.590;-122.498;2023-08-17T09:05:00;100573.03;;;27.45;39.70
50632;BME280;49583;45.590;-122.498;2023-08-17T09:07:24;100573.41;;;27.43;39.62
50632;BME280;49583;45.590;-122.498;2023-08-17T09:09:41;100570.55;;;27.41;39.81
50632;BME280;49583;45.590;-122.498;2023-08-17T09:11:54;100571.54;;;27.39;39.94
50632;BME280;49583;45.590;-122.498;2023-08-17T09:14:08;100570.92;;;27.37;39.81
50632;BME280;49583;45.590;-122.498;2023-08-17T09:16:32;100568.85;;;27.35;40.02
50632;BME280;49583;45.590;-122.498;2023-08-17T09:18:54;100572.27;;;27.33;39.92
50632;BME280;49583;45.590;-122.498;2023-08-17T09:21:08;100572.52;;;27.31;40.13
50632;BME280;49583;45.590;-122.498;2023-08-17T09:23:31;100574.88;;;27.29;40.22
50632;BME280;49583;45.590;-122.498;2023-08-17T09:25:49;100576.55;;;27.26;40.28
50632;BME280;49583;45.590;-122.498;2023-08-17T09:28:09;100579.09;;;27.21;40.34
50632;BME280;49583;45.590;-122.498;2023-08-17T09:30:23;100577.39;;;27.13;40.27
50632;BME280;49583;45.590;-122.498;2023-08-17T09:32:38;100574.23;;;27.09;40.65
50632;BME280;49583;45.590;-122.498;2023-08-17T09:34:54;100572.23;;;27.03;40.59
50632;BME280;49583;45.590;-122.498;2023-08-17T09:37:07;100569.89;;;26.99;40.69
50632;BME280;49583;45.590;-122.498;2023-08-17T09:39:20;100567.23;;;26.94;40.90
50632;BME280;49583;45.590;-122.498;2023-08-17T09:41:43;100565.83;;;26.90;41.07
50632;BME280;49583;45.590;-122.498;2023-08-17T09:43:57;100562.66;;;26.86;41.15
50632;BME280;49583;45.590;-122.498;2023-08-17T09:46:10;100562.19;;;26.83;41.35
50632;BME280;49583;45.590;-122.498;2023-08-17T09:48:22;100558.90;;;26.78;41.49
50632;BME280;49583;45.590;-122.498;2023-08-17T09:50:41;100563.12;;;26.74;41.64
50632;BME280;49583;45.590;-122.498;2023-08-17T09:52:56;100563.30;;;26.70;41.78
50632;BME280;49583;45.590;-122.498;2023-08-17T09:55:11;100566.20;;;26.68;41.89
50632;BME280;49583;45.590;-122.498;2023-08-17T09:57:25;100568.23;;;26.64;41.99
50632;BME280;49583;45.590;-122.498;2023-08-17T09:59:39;100569.88;;;26.62;42.10
50632;BME280;49583;45.590;-122.498;2023-08-17T10:01:53;100567.63;;;26.58;42.18
50632;BME280;49583;45.590;-122.498;2023-08-17T10:04:07;100571.91;;;26.58;42.23
50632;BME280;49583;45.590;-122.498;2023-08-17T10:06:24;100566.78;;;26.53;42.24
50632;BME280;49583;45.590;-122.498;2023-08-17T10:08:45;100562.60;;;26.49;42.46
50632;BME280;49583;45.590;-122.498;2023-08-17T10:10:59;100567.89;;;26.44;42.58
50632;BME280;49583;45.590;-122.498;2023-08-17T10:13:19;100570.49;;;26.38;42.73
50632;BME280;49583;45.590;-122.498;2023-08-17T10:15:41;100567.98;;;26.32;42.84
50632;BME280;49583;45.590;-122.498;2023-08-17T10:18:02;100563.61;;;26.29;42.90
50632;BME280;49583;45.590;-122.498;2023-08-17T10:20:23;100561.35;;;26.25;43.46
50632;BME280;49583;45.590;-122.498;2023-08-17T10:22:42;100555.70;;;26.20;43.74
50632;BME280;49583;45.590;-122.498;2023-08-17T10:24:58;100557.84;;;26.16;43.77
50632;BME280;49583;45.590;-122.498;2023-08-17T10:27:12;100552.37;;;26.11;44.12
50632;BME280;49583;45.590;-122.498;2023-08-17T10:29:26;100559.02;;;26.05;44.61
50632;BME280;49583;45.590;-122.498;2023-08-17T10:31:38;100561.30;;;26.01;44.58
50632;BME280;49583;45.590;-122.498;2023-08-17T10:33:51;100555.62;;;25.95;44.79
50632;BME280;49583;45.590;-122.498;2023-08-17T10:36:05;100557.93;;;25.94;45.05
50632;BME280;49583;45.590;-122.498;2023-08-17T10:38:18;100553.55;;;25.92;45.02
50632;BME280;49583;45.590;-122.498;2023-08-17T10:40:34;100547.66;;;25.88;44.95
50632;BME280;49583;45.590;-122.498;2023-08-17T10:42:55;100547.02;;;25.85;45.00
50632;BME280;49583;45.590;-122.498;2023-08-17T10:47:32;100547.18;;;25.78;45.05
50632;BME280;49583;45.590;-122.498;2023-08-17T10:49:46;100549.73;;;25.74;45.16
50632;BME280;49583;45.590;-122.498;2023-08-17T10:52:07;100555.27;;;25.70;45.19
50632;BME280;49583;45.590;-122.498;2023-08-17T10:54:20;100558.08;;;25.66;45.44
50632;BME280;49583;45.590;-122.498;2023-08-17T10:56:47;100562.61;;;25.63;45.45
50632;BME280;49583;45.590;-122.498;2023-08-17T10:59:04;100563.91;;;25.59;45.48
50632;BME280;49583;45.590;-122.498;2023-08-17T11:01:36;100564.64;;;25.55;45.67
50632;BME280;49583;45.590;-122.498;2023-08-17T11:04:11;100554.69;;;25.51;45.81
50632;BME280;49583;45.590;-122.498;2023-08-17T11:06:24;100552.55;;;25.48;45.88
50632;BME280;49583;45.590;-122.498;2023-08-17T11:08:38;100551.14;;;25.46;45.87
50632;BME280;49583;45.590;-122.498;2023-08-17T11:11:01;100551.63;;;25.44;45.96
50632;BME280;49583;45.590;-122.498;2023-08-17T11:13:16;100558.56;;;25.41;46.05
50632;BME280;49583;45.590;-122.498;2023-08-17T11:15:36;100560.48;;;25.37;46.10
50632;BME280;49583;45.590;-122.498;2023-08-17T11:17:55;100560.41;;;25.33;46.30
50632;BME280;49583;45.590;-122.498;2023-08-17T11:20:09;100558.33;;;25.29;46.36
50632;BME280;49583;45.590;-122.498;2023-08-17T11:22:23;100556.28;;;25.26;46.47
50632;BME280;49583;45.590;-122.498;2023-08-17T11:24:36;100556.16;;;25.24;46.43